Time;durP1;ratioP1;P1;durP2;ratioP2;P2;SDS_P1;SDS_P2;PMS_P1;PMS_P2;Temp;Humidity;BMP_temperature;BMP_pressure;BME280_temperature;BME280_humidity;BME280_pressure;Samples;Min_cycle;Max_cycle;Signal;HPM_P1;HPM_P2
2021/12/29 00:00:51;;;;;;;5.18;2.67;;;12.10;72.10;;;;;;5002429;28;20026;-60
2021/12/29 00:03:17;;;;;;;4.82;2.78;;;12.20;72.00;;;;;;5010453;28;20410;-58
2021/12/29 00:05:43;;;;;;;3.90;3.05;;;12.20;71.70;;;;;;5012393;28;20388;-58
2021/12/29 00:08:09;;;;;;;3.85;3.33;;;12.20;71.50;;;;;;5007060;28;20026;-57
2021/12/29 00:10:36;;;;;;;4.88;3.58;;;12.20;71.40;;;;;;5010541;28;20041;-58
2021/12/29 00:13:04;;;;;;;7.75;3.30;;;12.20;71.30;;;;;;4993931;28;20030;-57
2021/12/29 00:15:31;;;;;;;7.32;4.47;;;12.20;71.30;;;;;;5002894;28;20041;-59
2021/12/29 00:17:57;;;;;;;5.82;4.03;;;12.20;71.30;;;;;;5002513;28;20363;-58
2021/12/29 00:20:28;;;;;;;4.70;4.20;;;12.20;71.20;;;;;;5003908;28;20505;-58
2021/12/29 00:22:58;;;;;;;5.32;3.85;;;12.20;71.10;;;;;;5008626;28;20398;-59
2021/12/29 00:25:25;;;;;;;5.57;4.60;;;12.20;71.10;;;;;;5006766;28;20499;-57
2021/12/29 00:27:54;;;;;;;6.47;4.28;;;12.20;71.10;;;;;;5009006;28;20029;-57
2021/12/29 00:30:22;;;;;;;5.68;4.50;;;12.20;71.00;;;;;;5003910;28;20121;-57
2021/12/29 00:32:49;;;;;;;5.30;4.80;;;12.20;71.00;;;;;;5013803;28;20033;-56
2021/12/29 00:35:15;;;;;;;8.15;5.07;;;12.10;70.80;;;;;;5005146;28;20045;-57
2021/12/29 00:37:42;;;;;;;8.38;4.80;;;12.20;70.90;;;;;;4992518;28;20420;-56
2021/12/29 00:40:10;;;;;;;7.00;4.63;;;12.10;70.70;;;;;;5010911;28;20030;-57
2021/12/29 00:42:38;;;;;;;8.52;5.22;;;12.10;70.60;;;;;;5013623;28;20022;-57
2021/12/29 00:45:05;;;;;;;9.90;5.40;;;12.10;70.60;;;;;;4999832;28;20046;-58
2021/12/29 00:47:33;;;;;;;7.97;5.40;;;12.10;70.60;;;;;;5008169;28;20022;-57
2021/12/29 00:50:01;;;;;;;8.00;5.03;;;12.10;70.70;;;;;;5007479;28;20355;-58
2021/12/29 00:52:27;;;;;;;7.03;4.95;;;12.10;70.70;;;;;;5004810;28;20033;-59
2021/12/29 00:54:53;;;;;;;9.52;5.22;;;12.10;70.70;;;;;;5009277;28;20037;-53
2021/12/29 00:57:19;;;;;;;8.15;5.47;;;12.10;70.60;;;;;;5004456;28;20580;-58
2021/12/29 00:59:46;;;;;;;6.80;4.70;;;12.10;70.60;;;;;;5012545;28;20029;-58
2021/12/29 01:02:12;;;;;;;6.03;4.13;;;12.10;70.60;;;;;;5002900;28;20041;-59
2021/12/29 01:04:38;;;;;;;5.45;3.58;;;12.10;70.50;;;;;;4991604;28;20518;-56
2021/12/29 01:07:05;;;;;;;4.88;3.50;;;12.10;70.50;;;;;;5007609;28;20041;-57
2021/12/29 01:09:31;;;;;;;6.72;3.15;;;12.10;70.50;;;;;;5004135;28;20026;-57
2021/12/29 01:11:59;;;;;;;5.55;3.50;;;12.10;70.50;;;;;;4987812;28;20489;-59
2021/12/29 01:14:29;;;;;;;9.60;3.03;;;12.10;70.40;;;;;;4992236;28;20034;-58
2021/12/29 01:16:56;;;;;;;3.30;2.30;;;12.10;70.30;;;;;;5004024;28;20017;-60
2021/12/29 01:19:25;;;;;;;3.67;2.30;;;12.10;70.30;;;;;;5007906;28;20037;-59
2021/12/29 01:21:56;;;;;;;4.75;2.85;;;12.10;70.30;;;;;;5002709;28;20048;-59
2021/12/29 01:24:23;;;;;;;3.67;2.10;;;12.10;70.30;;;;;;5002774;28;20022;-57
2021/12/29 01:26:50;;;;;;;3.78;2.58;;;12.10;70.40;;;;;;5006070;28;20470;-60
2021/12/29 01:29:17;;;;;;;7.25;2.92;;;12.10;70.30;;;;;;5011229;28;20021;-60
2021/12/29 01:31:44;;;;;;;5.55;3.17;;;12.10;70.10;;;;;;5005868;28;20030;-59
2021/12/29 01:34:11;;;;;;;5.03;3.25;;;12.10;70.00;;;;;;5006460;28;20037;-60
2021/12/29 01:36:38;;;;;;;5.40;3.33;;;12.10;70.00;;;;;;5005129;28;20038;-60
2021/12/29 01:39:07;;;;;;;6.15;3.38;;;12.10;70.00;;;;;;5001627;28;20041;-58
2021/12/29 01:41:34;;;;;;;8.07;4.28;;;12.10;70.00;;;;;;5008094;28;20626;-60
2021/12/29 01:44:02;;;;;;;4.93;3.30;;;12.10;70.00;;;;;;5006394;28;20393;-58
2021/12/29 01:46:28;;;;;;;4.65;3.40;;;12.10;69.90;;;;;;5008917;28;20368;-59
2021/12/29 01:48:55;;;;;;;4.80;3.50;;;12.10;70.00;;;;;;5002808;28;20037;-60
2021/12/29 01:51:21;;;;;;;4.22;2.90;;;12.10;69.90;;;;;;5007989;28;20022;-58
2021/12/29 01:54:01;;;;;;;5.43;2.72;;;12.10;70.00;;;;;;5016158;28;20517;-60
2021/12/29 01:56:29;;;;;;;3.28;2.60;;;12.10;69.80;;;;;;5011594;28;20038;-59
2021/12/29 01:58:55;;;;;;;4.40;2.40;;;12.10;69.60;;;;;;5000933;28;20030;-59
2021/12/29 02:01:22;;;;;;;3.45;2.47;;;12.20;69.70;;;;;;5009371;28;20032;-59
2021/12/29 02:03:48;;;;;;;2.75;2.17;;;12.20;69.70;;;;;;5006874;28;20381;-57
2021/12/29 02:06:14;;;;;;;5.55;2.53;;;12.20;69.70;;;;;;5002547;28;20084;-60
2021/12/29 02:08:40;;;;;;;3.22;1.75;;;12.20;69.60;;;;;;5003212;28;20394;-57
2021/12/29 02:11:07;;;;;;;2.78;2.40;;;12.20;69.70;;;;;;5007199;28;20053;-59
2021/12/29 02:13:34;;;;;;;2.63;1.85;;;12.20;69.70;;;;;;5003976;28;20050;-59
2021/12/29 02:16:00;;;;;;;2.17;1.98;;;12.20;69.50;;;;;;5007377;28;20480;-57
2021/12/29 02:18:26;;;;;;;3.65;2.15;;;12.20;69.50;;;;;;4986566;28;20042;-57
2021/12/29 02:20:54;;;;;;;2.72;2.10;;;12.20;69.50;;;;;;4994100;28;20048;-60
2021/12/29 02:23:31;;;;;;;6.68;2.22;;;12.20;69.30;;;;;;5003682;28;20034;-60
2021/12/29 02:25:58;;;;;;;3.38;2.08;;;12.20;69.20;;;;;;5001230;28;20037;-57
2021/12/29 02:28:32;;;;;;;4.82;2.35;;;12.20;69.10;;;;;;5007771;28;20053;-57
2021/12/29 02:30:59;;;;;;;4.22;2.60;;;12.20;69.00;;;;;;4992815;28;20477;-57
2021/12/29 02:33:27;;;;;;;4.43;2.22;;;12.20;68.80;;;;;;5016986;28;20420;-58
2021/12/29 02:35:54;;;;;;;4.78;2.50;;;12.20;68.60;;;;;;5012305;28;20044;-58
2021/12/29 02:38:26;;;;;;;5.00;2.85;;;12.20;68.60;;;;;;4999086;28;20041;-59
2021/12/29 02:40:56;;;;;;;4.05;2.60;;;12.20;68.70;;;;;;5007166;28;20548;-57
2021/12/29 02:43:23;;;;;;;7.53;3.25;;;12.20;68.50;;;;;;5014178;28;20041;-58
2021/12/29 02:45:58;;;;;;;3.90;2.83;;;12.20;68.30;;;;;;5007015;28;20490;-55
2021/12/29 02:48:26;;;;;;;5.63;3.60;;;12.20;68.20;;;;;;5009314;28;20413;-59
2021/12/29 02:51:22;;;;;;;4.32;3.15;;;12.20;68.10;;;;;;5013252;28;20029;-58
2021/12/29 02:53:48;;;;;;;4.68;3.22;;;12.20;68.10;;;;;;5017695;28;20045;-55
2021/12/29 02:56:14;;;;;;;7.28;3.30;;;12.20;68.10;;;;;;5019328;28;20466;-57
2021/12/29 02:58:41;;;;;;;6.55;2.92;;;12.20;68.00;;;;;;5010227;28;20026;-58
2021/12/29 03:01:10;;;;;;;6.00;3.10;;;12.20;67.80;;;;;;5016140;28;20461;-57
2021/12/29 03:03:37;;;;;;;5.47;3.10;;;12.20;67.80;;;;;;5009369;28;20041;-59
2021/12/29 03:06:05;;;;;;;5.78;3.58;;;12.20;67.80;;;;;;5019825;28;20025;-60
2021/12/29 03:08:31;;;;;;;5.15;3.28;;;12.20;67.60;;;;;;5012760;28;20044;-59
2021/12/29 03:10:58;;;;;;;7.95;3.05;;;12.20;67.60;;;;;;5011812;28;20036;-57
2021/12/29 03:13:28;;;;;;;4.93;2.97;;;12.20;67.70;;;;;;5014592;28;20590;-59
2021/12/29 03:15:55;;;;;;;4.68;3.00;;;12.30;67.60;;;;;;5011470;28;20034;-60
2021/12/29 03:18:21;;;;;;;4.82;3.08;;;12.20;67.40;;;;;;5002241;28;20252;-58
2021/12/29 03:20:48;;;;;;;4.53;2.60;;;12.20;67.50;;;;;;5003244;28;20025;-59
2021/12/29 03:23:16;;;;;;;4.82;2.97;;;12.20;67.40;;;;;;5004732;28;20474;-59
2021/12/29 03:25:43;;;;;;;4.55;2.72;;;12.20;67.90;;;;;;5005714;28;20029;-57
2021/12/29 03:28:09;;;;;;;4.78;2.75;;;12.20;67.40;;;;;;5008061;28;20026;-60
2021/12/29 03:30:39;;;;;;;5.50;2.70;;;12.20;67.20;;;;;;5014985;28;20508;-58
2021/12/29 03:33:07;;;;;;;4.20;2.80;;;12.20;67.30;;;;;;5012873;28;20026;-58
2021/12/29 03:35:36;;;;;;;7.03;3.10;;;12.30;67.30;;;;;;5009172;28;20041;-57
2021/12/29 03:38:06;;;;;;;3.83;2.78;;;12.20;67.20;;;;;;5002245;28;20875;-56
2021/12/29 03:40:35;;;;;;;4.93;3.03;;;12.20;67.20;;;;;;5004039;28;20034;-57
2021/12/29 03:43:06;;;;;;;4.55;2.83;;;12.20;67.10;;;;;;5004747;28;20030;-57
2021/12/29 03:45:33;;;;;;;4.75;2.92;;;12.20;67.10;;;;;;5012308;28;20470;-57
2021/12/29 03:47:59;;;;;;;5.63;2.90;;;12.30;67.20;;;;;;4999825;28;20018;-58
2021/12/29 03:50:25;;;;;;;6.45;3.00;;;12.30;67.20;;;;;;5011782;28;20053;-59
2021/12/29 03:52:52;;;;;;;4.32;2.90;;;12.20;67.20;;;;;;5005119;28;20026;-59
2021/12/29 03:55:18;;;;;;;5.75;3.10;;;12.20;67.10;;;;;;5011685;28;20061;-58
2021/12/29 03:57:44;;;;;;;6.63;2.80;;;12.20;67.10;;;;;;5007637;28;20029;-54
2021/12/29 04:00:14;;;;;;;6.68;2.95;;;12.20;67.00;;;;;;5011961;28;20044;-57
2021/12/29 04:02:41;;;;;;;6.80;2.88;;;12.20;67.00;;;;;;5000511;28;20505;-55
2021/12/29 04:05:10;;;;;;;4.70;2.67;;;12.20;67.00;;;;;;5011415;28;20048;-57
2021/12/29 04:07:37;;;;;;;6.43;2.83;;;12.20;67.10;;;;;;5006692;28;20037;-57
2021/12/29 04:10:05;;;;;;;3.42;2.30;;;12.20;67.20;;;;;;5018228;28;20029;-56
2021/12/29 04:12:31;;;;;;;5.60;2.70;;;12.20;67.20;;;;;;5003682;28;20038;-55
2021/12/29 04:14:58;;;;;;;3.90;2.90;;;12.20;67.20;;;;;;5006327;28;20032;-56
2021/12/29 04:17:36;;;;;;;5.30;2.70;;;12.20;67.20;;;;;;5002929;28;20038;-58
2021/12/29 04:22:56;;;;;;;5.40;3.10;;;12.20;67.20;;;;;;5015264;28;20360;-57
2021/12/29 04:25:26;;;;;;;4.65;3.00;;;12.20;67.40;;;;;;5006742;28;20111;-58
2021/12/29 04:27:57;;;;;;;4.82;2.60;;;12.20;67.70;;;;;;5006452;28;20035;-57
2021/12/29 04:30:25;;;;;;;7.15;3.00;;;12.20;67.90;;;;;;5003435;28;20068;-59
2021/12/29 04:32:52;;;;;;;5.18;3.25;;;12.20;67.90;;;;;;5005336;28;20057;-57
2021/12/29 04:35:23;;;;;;;4.25;2.88;;;12.20;67.60;;;;;;4986455;28;20470;-60
2021/12/29 04:37:51;;;;;;;5.50;2.97;;;12.20;67.50;;;;;;4995284;28;20564;-56
2021/12/29 04:40:18;;;;;;;10.82;3.30;;;12.20;67.40;;;;;;5003395;28;20040;-58
2021/12/29 04:42:44;;;;;;;5.13;3.10;;;12.20;67.40;;;;;;5008065;28;20203;-57
2021/12/29 04:45:11;;;;;;;8.43;3.70;;;12.20;67.50;;;;;;5008220;28;20040;-57
2021/12/29 04:47:41;;;;;;;7.40;3.63;;;12.20;67.50;;;;;;5008247;28;20025;-55
2021/12/29 04:50:18;;;;;;;4.95;3.55;;;12.20;67.60;;;;;;5011063;28;20048;-59
2021/12/29 04:52:46;;;;;;;4.80;3.47;;;12.20;67.60;;;;;;5006658;28;20030;-59
2021/12/29 04:55:12;;;;;;;6.95;4.38;;;12.20;67.70;;;;;;5010522;28;20064;-56
2021/12/29 04:57:38;;;;;;;5.43;3.85;;;12.10;67.70;;;;;;5008380;28;20029;-57
2021/12/29 05:00:07;;;;;;;6.32;4.05;;;12.20;67.90;;;;;;5003296;28;20440;-59
2021/12/29 05:02:33;;;;;;;6.97;4.10;;;12.10;67.90;;;;;;5003472;28;20018;-60
2021/12/29 05:05:07;;;;;;;12.35;3.85;;;12.10;67.70;;;;;;5005079;28;20022;-58
2021/12/29 05:10:19;;;;;;;6.35;3.83;;;12.10;67.90;;;;;;4997447;28;20037;-57
2021/12/29 05:12:45;;;;;;;4.75;3.83;;;12.10;68.00;;;;;;4989359;28;20045;-59
2021/12/29 05:15:11;;;;;;;6.65;3.90;;;12.10;68.00;;;;;;4996040;28;20025;-56
2021/12/29 05:17:37;;;;;;;6.28;3.63;;;12.10;68.10;;;;;;4996935;28;20462;-58
2021/12/29 05:20:04;;;;;;;4.50;3.38;;;12.10;68.10;;;;;;4999913;28;20385;-59
2021/12/29 05:22:30;;;;;;;8.05;3.63;;;12.10;67.90;;;;;;5005790;28;20033;-58
2021/12/29 05:24:56;;;;;;;4.78;3.20;;;12.10;67.80;;;;;;4986826;28;20037;-55
2021/12/29 05:27:23;;;;;;;4.80;3.42;;;12.10;67.60;;;;;;5007322;28;20030;-58
2021/12/29 05:29:49;;;;;;;7.40;3.90;;;12.10;67.60;;;;;;5006871;28;20363;-59
2021/12/29 05:32:15;;;;;;;6.65;3.83;;;12.10;67.40;;;;;;5001885;28;20034;-59
2021/12/29 05:34:41;;;;;;;5.90;3.92;;;12.10;67.30;;;;;;5009316;28;20030;-55
2021/12/29 05:37:07;;;;;;;5.63;3.75;;;12.10;67.30;;;;;;5007602;28;20049;-59
2021/12/29 05:39:34;;;;;;;6.50;4.10;;;12.10;67.50;;;;;;5010201;28;20039;-59
2021/12/29 05:42:00;;;;;;;4.93;3.78;;;12.10;67.50;;;;;;5002063;28;20485;-57
2021/12/29 05:44:26;;;;;;;9.88;3.97;;;12.10;67.50;;;;;;5011495;28;20378;-59
2021/12/29 05:46:52;;;;;;;8.18;4.40;;;12.10;67.60;;;;;;4961942;28;20042;-57
2021/12/29 05:49:18;;;;;;;7.72;4.47;;;12.10;67.60;;;;;;5006626;28;20095;-57
2021/12/29 05:51:45;;;;;;;12.77;3.63;;;12.00;67.40;;;;;;5018503;28;20033;-59
2021/12/29 05:54:11;;;;;;;7.63;4.40;;;12.00;67.50;;;;;;5018618;28;20053;-59
2021/12/29 05:56:37;;;;;;;6.97;4.63;;;12.00;67.50;;;;;;5017588;28;20397;-59
2021/12/29 05:59:04;;;;;;;6.75;4.70;;;12.10;67.50;;;;;;5019653;28;20397;-58
2021/12/29 06:01:31;;;;;;;6.60;4.93;;;12.00;67.30;;;;;;5000776;28;20033;-59
2021/12/29 06:03:57;;;;;;;7.63;5.20;;;12.00;67.10;;;;;;5022681;28;20440;-59
2021/12/29 06:06:23;;;;;;;8.55;5.60;;;12.00;67.20;;;;;;5021827;28;20040;-56
2021/12/29 06:08:50;;;;;;;6.75;5.45;;;12.00;67.20;;;;;;5022993;28;20021;-58
2021/12/29 06:11:16;;;;;;;8.63;5.57;;;12.00;67.10;;;;;;5023407;28;20052;-59
2021/12/29 06:13:42;;;;;;;8.32;5.68;;;12.00;66.90;;;;;;5022388;28;20033;-57
2021/12/29 06:16:08;;;;;;;8.55;6.03;;;12.00;66.90;;;;;;5021981;28;20041;-59
2021/12/29 06:18:34;;;;;;;9.38;6.38;;;12.00;66.90;;;;;;5023413;28;20493;-58
2021/12/29 06:21:01;;;;;;;9.90;6.22;;;12.00;66.80;;;;;;5021011;28;20037;-59
2021/12/29 06:23:27;;;;;;;7.53;5.53;;;12.00;66.80;;;;;;5021123;28;20344;-56
2021/12/29 06:25:53;;;;;;;11.20;5.85;;;12.00;66.70;;;;;;5021874;28;20029;-59
2021/12/29 06:28:19;;;;;;;8.13;5.78;;;12.00;66.80;;;;;;5022000;28;20028;-60
2021/12/29 06:30:46;;;;;;;7.32;6.10;;;12.00;66.80;;;;;;5021681;28;20044;-59
2021/12/29 06:33:12;;;;;;;8.95;6.47;;;12.00;66.60;;;;;;5022118;28;20037;-59
2021/12/29 06:35:38;;;;;;;7.90;5.82;;;12.00;66.60;;;;;;5022828;28;20032;-60
2021/12/29 06:38:05;;;;;;;6.57;5.70;;;12.00;66.50;;;;;;5021537;28;20037;-57
2021/12/29 06:40:31;;;;;;;10.68;5.93;;;12.00;66.40;;;;;;5004717;28;20546;-58
2021/12/29 06:42:57;;;;;;;11.10;6.15;;;12.00;66.30;;;;;;5021930;28;20040;-57
2021/12/29 06:45:24;;;;;;;10.23;6.45;;;12.00;66.10;;;;;;5020269;28;20029;-57
2021/12/29 06:47:50;;;;;;;12.13;6.78;;;12.00;66.00;;;;;;5014944;28;20025;-59
2021/12/29 06:50:16;;;;;;;9.15;6.63;;;12.00;66.00;;;;;;5021306;28;20044;-57
2021/12/29 06:52:42;;;;;;;12.32;7.07;;;12.00;65.80;;;;;;5019126;28;20060;-59
2021/12/29 06:55:09;;;;;;;8.43;6.63;;;12.00;65.80;;;;;;5023107;28;20045;-57
2021/12/29 06:57:35;;;;;;;8.90;6.32;;;12.00;65.70;;;;;;5020215;28;20646;-59
2021/12/29 07:00:03;;;;;;;10.23;6.95;;;12.00;65.60;;;;;;5021097;28;20030;-58
2021/12/29 07:02:29;;;;;;;7.50;6.32;;;12.00;65.60;;;;;;5011681;28;20494;-56
2021/12/29 07:04:55;;;;;;;10.85;7.07;;;12.00;65.60;;;;;;5019196;28;20037;-58
2021/12/29 07:07:22;;;;;;;11.38;6.50;;;12.00;65.60;;;;;;5012314;28;20034;-59
2021/12/29 07:09:48;;;;;;;9.02;6.38;;;12.00;65.50;;;;;;5005655;28;20481;-57
2021/12/29 07:12:14;;;;;;;9.27;6.25;;;12.10;65.50;;;;;;5021425;28;20032;-57
2021/12/29 07:14:41;;;;;;;8.25;5.82;;;12.10;65.60;;;;;;5021968;28;20034;-59
2021/12/29 07:17:07;;;;;;;8.20;5.47;;;12.10;65.50;;;;;;4996354;28;20127;-59
2021/12/29 07:19:34;;;;;;;8.18;5.47;;;12.10;65.60;;;;;;5023598;28;20033;-57
2021/12/29 07:22:02;;;;;;;8.00;5.15;;;12.10;65.40;;;;;;5019337;28;20029;-57
2021/12/29 07:24:28;;;;;;;8.48;5.30;;;12.10;65.30;;;;;;5020643;28;20021;-57
2021/12/29 07:26:54;;;;;;;8.02;4.53;;;12.10;65.20;;;;;;5021203;28;20033;-58
2021/12/29 07:29:20;;;;;;;5.82;4.47;;;12.10;65.10;;;;;;5019265;28;20037;-60
2021/12/29 07:31:46;;;;;;;8.05;4.43;;;12.10;64.90;;;;;;5019203;28;20033;-57
2021/12/29 07:34:13;;;;;;;8.52;4.50;;;12.20;64.90;;;;;;5022959;28;20028;-58
2021/12/29 07:36:39;;;;;;;5.72;3.90;;;12.10;64.50;;;;;;5021507;28;20466;-59
2021/12/29 07:39:09;;;;;;;4.90;3.67;;;12.10;64.30;;;;;;5019894;28;20021;-57
2021/12/29 07:41:36;;;;;;;6.75;3.35;;;12.20;64.40;;;;;;5017384;28;20036;-59
2021/12/29 07:44:04;;;;;;;4.55;2.95;;;12.10;64.30;;;;;;5016797;28;20046;-57
2021/12/29 07:46:33;;;;;;;5.30;3.00;;;12.20;64.40;;;;;;4994545;28;20033;-58
2021/12/29 07:49:02;;;;;;;4.22;3.33;;;12.20;64.30;;;;;;5013920;28;20042;-57
2021/12/29 07:51:28;;;;;;;4.88;3.58;;;12.20;64.00;;;;;;5019226;28;20093;-57
2021/12/29 07:53:54;;;;;;;6.07;3.67;;;12.20;64.00;;;;;;5020958;28;20672;-59
2021/12/29 07:56:22;;;;;;;3.90;3.10;;;12.20;64.10;;;;;;5019813;28;20485;-57
2021/12/29 07:58:49;;;;;;;7.00;3.30;;;12.20;64.00;;;;;;5014680;28;20532;-59
2021/12/29 08:01:15;;;;;;;5.78;3.08;;;12.20;63.90;;;;;;5018157;28;20045;-57
2021/12/29 08:03:41;;;;;;;5.55;3.40;;;12.20;63.60;;;;;;5003670;28;20036;-57
2021/12/29 08:06:08;;;;;;;3.25;2.80;;;12.20;63.50;;;;;;5021008;28;20022;-59
2021/12/29 08:08:34;;;;;;;4.57;3.25;;;12.20;63.30;;;;;;5019737;28;20029;-59
2021/12/29 08:11:00;;;;;;;6.70;3.92;;;12.20;63.20;;;;;;5013744;28;20034;-56
2021/12/29 08:13:26;;;;;;;6.38;3.65;;;12.20;63.20;;;;;;5018738;28;20064;-57
2021/12/29 08:15:52;;;;;;;6.78;3.30;;;12.20;63.00;;;;;;5017814;28;20040;-55
2021/12/29 08:18:19;;;;;;;6.53;3.38;;;12.20;62.90;;;;;;5019614;28;20029;-55
2021/12/29 08:20:45;;;;;;;5.35;3.22;;;12.20;63.00;;;;;;5021534;28;20029;-54
2021/12/29 08:23:12;;;;;;;6.35;3.58;;;12.20;63.00;;;;;;5019947;28;20485;-57
2021/12/29 08:25:38;;;;;;;4.25;2.88;;;12.20;62.70;;;;;;5020152;28;20049;-58
2021/12/29 08:28:06;;;;;;;3.85;2.88;;;12.20;62.70;;;;;;5016512;28;20516;-55
2021/12/29 08:30:33;;;;;;;3.72;2.55;;;12.20;62.70;;;;;;5020903;28;20049;-57
2021/12/29 08:33:00;;;;;;;4.13;2.40;;;12.20;62.70;;;;;;4995602;28;20034;-55
2021/12/29 08:35:29;;;;;;;6.53;2.40;;;12.20;62.60;;;;;;5016035;28;20021;-52
2021/12/29 08:37:56;;;;;;;4.82;2.47;;;12.20;62.60;;;;;;5018907;28;20026;-56
2021/12/29 08:40:22;;;;;;;5.57;1.85;;;12.20;62.30;;;;;;5020905;28;20032;-57
2021/12/29 08:42:48;;;;;;;2.03;1.75;;;12.20;62.10;;;;;;5002706;28;20052;-58
2021/12/29 08:45:17;;;;;;;4.55;2.20;;;12.20;61.90;;;;;;5018902;28;20576;-56
2021/12/29 08:47:44;;;;;;;6.00;2.00;;;12.20;61.60;;;;;;5016601;28;20018;-55
2021/12/29 08:50:13;;;;;;;5.78;2.05;;;12.30;61.80;;;;;;5020092;28;20033;-54
2021/12/29 08:52:40;;;;;;;3.75;1.80;;;12.20;61.40;;;;;;5000163;28;20033;-55
2021/12/29 08:55:08;;;;;;;5.22;2.10;;;12.30;61.60;;;;;;5019569;28;20033;-57
2021/12/29 08:57:34;;;;;;;4.35;1.90;;;12.30;61.70;;;;;;5017917;28;20402;-53
2021/12/29 09:00:01;;;;;;;4.07;2.40;;;12.30;61.50;;;;;;5016415;28;20038;-57
2021/12/29 09:02:27;;;;;;;3.53;1.90;;;12.30;61.40;;;;;;5011706;28;20045;-55
2021/12/29 09:04:53;;;;;;;5.22;2.10;;;12.30;61.10;;;;;;5019613;28;20040;-54
2021/12/29 09:07:20;;;;;;;4.35;1.80;;;12.30;60.80;;;;;;5020107;28;20025;-55
2021/12/29 09:09:46;;;;;;;3.35;1.90;;;12.40;61.00;;;;;;5020498;28;20359;-57
2021/12/29 09:12:12;;;;;;;3.30;1.73;;;12.40;60.90;;;;;;5017005;28;20045;-54
2021/12/29 09:14:38;;;;;;;3.40;2.17;;;12.40;60.90;;;;;;4992134;28;20045;-55
2021/12/29 09:17:04;;;;;;;4.22;1.90;;;12.40;61.00;;;;;;5017356;28;20495;-55
2021/12/29 09:19:34;;;;;;;5.43;2.10;;;12.40;60.80;;;;;;5018867;28;20022;-55
2021/12/29 09:22:00;;;;;;;2.80;1.88;;;12.50;60.80;;;;;;4999445;28;20389;-56
2021/12/29 09:24:26;;;;;;;4.78;2.38;;;12.50;60.90;;;;;;5012712;28;20045;-55
2021/12/29 09:26:53;;;;;;;5.38;1.70;;;12.50;60.60;;;;;;4984655;28;20060;-54
2021/12/29 09:29:20;;;;;;;4.65;2.10;;;12.50;60.40;;;;;;5011118;28;20038;-53
2021/12/29 09:31:46;;;;;;;3.15;1.77;;;12.50;60.20;;;;;;5006871;28;20397;-55
2021/12/29 09:34:12;;;;;;;2.88;1.70;;;12.50;60.10;;;;;;5011928;28;20034;-55
2021/12/29 09:36:38;;;;;;;3.50;1.83;;;12.50;59.90;;;;;;5006987;28;20045;-56
2021/12/29 09:39:05;;;;;;;4.63;2.13;;;12.60;59.90;;;;;;5008650;28;20757;-54
2021/12/29 09:41:32;;;;;;;3.25;1.75;;;12.50;59.80;;;;;;5017816;28;20029;-57
2021/12/29 09:43:58;;;;;;;5.63;3.22;;;12.50;59.70;;;;;;5009737;28;20033;-58
2021/12/29 09:46:25;;;;;;;15.73;6.18;;;12.50;59.60;;;;;;5018089;28;20042;-55
2021/12/29 09:48:52;;;;;;;4.97;2.67;;;12.60;59.70;;;;;;5015754;28;20025;-55
2021/12/29 09:51:18;;;;;;;5.32;2.15;;;12.60;59.80;;;;;;5016917;28;20413;-55
2021/12/29 09:53:45;;;;;;;3.45;1.70;;;12.60;59.70;;;;;;5018281;28;20045;-55
2021/12/29 09:56:12;;;;;;;4.63;2.10;;;12.60;59.80;;;;;;5018412;28;20378;-57
2021/12/29 09:58:39;;;;;;;3.25;1.90;;;12.60;59.80;;;;;;4992994;28;20037;-54
2021/12/29 10:01:08;;;;;;;5.10;1.67;;;12.60;59.80;;;;;;4996648;28;20029;-54
2021/12/29 10:03:35;;;;;;;3.25;1.50;;;12.60;59.80;;;;;;4991106;28;20037;-54
2021/12/29 10:06:05;;;;;;;1.75;1.40;;;12.70;59.90;;;;;;5018002;28;20482;-52
2021/12/29 10:08:38;;;;;;;4.25;1.88;;;12.70;59.80;;;;;;4992050;28;20533;-55
2021/12/29 10:11:07;;;;;;;5.10;1.75;;;12.70;59.40;;;;;;5016645;28;20111;-55
2021/12/29 10:13:42;;;;;;;2.78;1.40;;;12.70;59.50;;;;;;5012946;28;20038;-56
2021/12/29 10:16:12;;;;;;;2.95;1.75;;;12.70;59.60;;;;;;4985062;28;20451;-54
2021/12/29 10:18:41;;;;;;;5.38;2.08;;;12.70;59.60;;;;;;5007342;28;20025;-54
2021/12/29 10:21:14;;;;;;;4.75;2.03;;;12.80;59.50;;;;;;5016657;28;20049;-56
2021/12/29 10:23:43;;;;;;;3.72;1.80;;;12.70;59.20;;;;;;4993717;28;20382;-56
2021/12/29 10:26:12;;;;;;;4.85;1.88;;;12.80;59.40;;;;;;5015174;28;20021;-55
2021/12/29 10:28:42;;;;;;;2.53;1.80;;;12.70;59.40;;;;;;5005254;28;20040;-51
2021/12/29 10:31:23;;;;;;;3.15;1.88;;;12.80;59.50;;;;;;4987459;28;20041;-55
2021/12/29 10:33:51;;;;;;;3.20;1.95;;;12.80;59.60;;;;;;4988360;28;20424;-54
2021/12/29 10:36:28;;;;;;;2.45;1.92;;;12.80;59.70;;;;;;5007811;28;20014;-56
2021/12/29 10:39:15;;;;;;;5.35;2.00;;;12.80;59.60;;;;;;5006376;28;20033;-53
2021/12/29 10:41:55;;;;;;;3.13;1.92;;;12.90;59.50;;;;;;5006683;28;20036;-54
2021/12/29 10:44:30;;;;;;;2.58;1.73;;;12.90;59.60;;;;;;5006950;28;20639;-53
2021/12/29 10:46:56;;;;;;;3.92;1.67;;;12.90;59.60;;;;;;5005031;28;20032;-56
2021/12/29 10:49:28;;;;;;;2.75;1.77;;;12.90;59.70;;;;;;5009832;28;20033;-52
2021/12/29 10:51:58;;;;;;;2.45;1.90;;;13.00;59.80;;;;;;5008791;28;20021;-56
2021/12/29 10:54:28;;;;;;;4.78;1.90;;;13.00;59.70;;;;;;5019795;28;20042;-54
2021/12/29 10:57:08;;;;;;;3.63;1.85;;;13.10;59.80;;;;;;5019865;28;20033;-53
2021/12/29 10:59:41;;;;;;;3.97;2.00;;;13.10;59.70;;;;;;5018044;28;20877;-54
2021/12/29 11:02:09;;;;;;;2.75;1.65;;;13.20;59.70;;;;;;5002383;28;20052;-56
2021/12/29 11:04:37;;;;;;;3.08;1.67;;;13.20;59.70;;;;;;5016359;28;20033;-55
2021/12/29 11:07:04;;;;;;;2.35;1.70;;;13.30;59.50;;;;;;5018119;28;20108;-55
2021/12/29 11:09:34;;;;;;;5.05;2.22;;;13.30;59.20;;;;;;5021525;28;20032;-56
2021/12/29 11:12:09;;;;;;;4.85;2.22;;;13.30;59.60;;;;;;5022459;28;20485;-54
2021/12/29 11:14:43;;;;;;;4.10;1.58;;;13.30;59.00;;;;;;5020849;28;20026;-54
2021/12/29 11:17:11;;;;;;;2.67;1.20;;;13.30;58.80;;;;;;5016804;28;20393;-55
2021/12/29 11:19:39;;;;;;;2.97;1.40;;;13.30;58.70;;;;;;5018534;28;20287;-55
2021/12/29 11:22:12;;;;;;;4.63;1.50;;;13.40;58.60;;;;;;5020925;28;20411;-55
2021/12/29 11:24:41;;;;;;;8.20;2.00;;;13.30;58.40;;;;;;5011977;28;20456;-54
2021/12/29 11:27:15;;;;;;;2.45;1.58;;;13.30;58.40;;;;;;5018544;28;20040;-55
2021/12/29 11:30:08;;;;;;;4.28;1.58;;;13.30;58.10;;;;;;5017262;28;20033;-55
2021/12/29 11:32:37;;;;;;;3.35;1.83;;;13.30;58.20;;;;;;5019843;28;20034;-53
2021/12/29 11:35:09;;;;;;;4.43;1.48;;;13.30;58.30;;;;;;5017297;28;20026;-54
2021/12/29 11:37:38;;;;;;;4.72;1.40;;;13.30;58.30;;;;;;5020253;28;20045;-54
2021/12/29 11:40:07;;;;;;;4.80;1.60;;;13.30;58.30;;;;;;5019403;28;20033;-53
2021/12/29 11:42:34;;;;;;;4.25;1.52;;;13.30;58.40;;;;;;5021084;28;20041;-56
2021/12/29 11:45:00;;;;;;;5.00;1.58;;;13.40;58.60;;;;;;5001902;28;20029;-54
2021/12/29 11:47:27;;;;;;;2.95;1.13;;;13.40;58.60;;;;;;5018365;28;20029;-54
2021/12/29 11:49:53;;;;;;;3.47;1.30;;;13.40;58.40;;;;;;5021053;28;20030;-55
2021/12/29 11:52:46;;;;;;;2.88;1.58;;;13.40;58.50;;;;;;5022103;28;20029;-55
2021/12/29 11:55:22;;;;;;;9.00;1.42;;;13.40;57.90;;;;;;4982741;28;20042;-54
2021/12/29 11:57:48;;;;;;;4.25;1.52;;;13.50;57.90;;;;;;4981092;28;20045;-56
2021/12/29 12:00:18;;;;;;;4.35;1.52;;;13.50;58.10;;;;;;4979223;28;20053;-53
2021/12/29 12:02:48;;;;;;;3.65;1.77;;;13.50;58.10;;;;;;4979454;28;20054;-51
2021/12/29 12:05:22;;;;;;;3.00;1.65;;;13.50;58.00;;;;;;4982167;28;20018;-54
2021/12/29 12:07:49;;;;;;;3.58;1.75;;;13.60;57.90;;;;;;4980436;28;20395;-56
2021/12/29 12:10:35;;;;;;;4.35;1.60;;;13.60;58.00;;;;;;4982520;28;20042;-56
2021/12/29 12:13:18;;;;;;;4.45;1.90;;;13.60;57.80;;;;;;4980754;28;20501;-56
2021/12/29 12:18:22;;;;;;;5.38;1.92;;;13.70;57.80;;;;;;5053089;23;20490;-51
2021/12/29 12:20:50;;;;;;;6.07;2.00;;;13.70;57.50;;;;;;5011103;28;20909;-54
2021/12/29 12:23:25;;;;;;;3.70;1.65;;;13.70;57.40;;;;;;5018828;28;20036;-53
2021/12/29 12:25:52;;;;;;;2.90;1.55;;;13.70;57.40;;;;;;5008250;28;20026;-52
2021/12/29 12:28:21;;;;;;;6.10;1.63;;;13.70;57.50;;;;;;4996782;28;20034;-53
2021/12/29 12:30:51;;;;;;;3.20;1.23;;;13.70;57.40;;;;;;4984297;28;20348;-51
2021/12/29 12:33:25;;;;;;;2.80;1.33;;;13.70;57.10;;;;;;5010888;28;20029;-53
2021/12/29 12:35:53;;;;;;;3.35;1.30;;;13.70;57.10;;;;;;5014409;28;20462;-53
2021/12/29 12:38:27;;;;;;;3.13;1.30;;;13.80;57.20;;;;;;4984346;28;20393;-53
2021/12/29 12:41:16;;;;;;;2.00;1.20;;;13.80;57.30;;;;;;5001091;28;20053;-53
2021/12/29 12:43:58;;;;;;;3.70;1.20;;;13.80;57.60;;;;;;5001049;28;20045;-52
2021/12/29 12:46:27;;;;;;;4.43;1.55;;;13.80;57.20;;;;;;4999899;28;20037;-56
2021/12/29 12:48:53;;;;;;;4.68;1.30;;;13.80;57.20;;;;;;5005044;28;20879;-54
2021/12/29 12:51:21;;;;;;;5.03;1.00;;;13.80;57.30;;;;;;5004996;28;20021;-52
2021/12/29 12:53:48;;;;;;;3.78;0.77;;;13.80;57.20;;;;;;5017653;28;20504;-54
2021/12/29 12:56:20;;;;;;;2.05;0.80;;;13.80;57.10;;;;;;5000144;28;20440;-54
2021/12/29 12:58:50;;;;;;;3.45;0.95;;;13.80;57.10;;;;;;5006832;28;20048;-54